sensor_id;sensor_type;location;lat;lon;timestamp;P1;durP1;ratioP1;P2;durP2;ratioP2
53931;SDS011;39844;52.496;13.482;2023-07-29T00:02:22;3.23;;;2.93;;
53931;SDS011;39844;52.496;13.482;2023-07-29T00:04:47;3.17;;;2.97;;
53931;SDS011;39844;52.496;13.482;2023-07-29T00:07:12;2.67;;;2.53;;
53931;SDS011;39844;52.496;13.482;2023-07-29T00:09:38;2.93;;;2.73;;
53931;SDS011;39844;52.496;13.482;2023-07-29T00:12:03;3.67;;;2.67;;
53931;SDS011;39844;52.496;13.482;2023-07-29T00:14:29;5.50;;;2.97;;
53931;SDS011;39844;52.496;13.482;2023-07-29T00:16:54;4.47;;;3.07;;
53931;SDS011;39844;52.496;13.482;2023-07-29T00:19:22;3.13;;;2.63;;
53931;SDS011;39844;52.496;13.482;2023-07-29T00:21:47;3.37;;;3.07;;
53931;SDS011;39844;52.496;13.482;2023-07-29T00:24:12;3.07;;;2.77;;
53931;SDS011;39844;52.496;13.482;2023-07-29T00:26:37;3.23;;;2.93;;
53931;SDS011;39844;52.496;13.482;2023-07-29T00:29:03;3.50;;;3.10;;
53931;SDS011;39844;52.496;13.482;2023-07-29T00:31:28;3.13;;;2.83;;
53931;SDS011;39844;52.496;13.482;2023-07-29T00:33:53;2.90;;;2.70;;
53931;SDS011;39844;52.496;13.482;2023-07-29T00:36:19;3.43;;;2.83;;
53931;SDS011;39844;52.496;13.482;2023-07-29T00:38:44;3.80;;;2.60;;
53931;SDS011;39844;52.496;13.482;2023-07-29T00:41:09;3.17;;;2.77;;
53931;SDS011;39844;52.496;13.482;2023-07-29T00:43:36;2.83;;;2.63;;
53931;SDS011;39844;52.496;13.482;2023-07-29T00:46:01;3.40;;;2.83;;
53931;SDS011;39844;52.496;13.482;2023-07-29T00:48:27;2.70;;;2.50;;
53931;SDS011;39844;52.496;13.482;2023-07-29T00:50:53;2.83;;;2.63;;
53931;SDS011;39844;52.496;13.482;2023-07-29T00:53:19;2.90;;;2.70;;
53931;SDS011;39844;52.496;13.482;2023-07-29T00:55:44;3.00;;;2.80;;
53931;SDS011;39844;52.496;13.482;2023-07-29T00:58:10;2.90;;;2.70;;
53931;SDS011;39844;52.496;13.482;2023-07-29T01:00:35;3.10;;;2.77;;
53931;SDS011;39844;52.496;13.482;2023-07-29T01:03:01;3.57;;;3.20;;
53931;SDS011;39844;52.496;13.482;2023-07-29T01:05:29;3.20;;;2.90;;
53931;SDS011;39844;52.496;13.482;2023-07-29T01:08:06;3.53;;;3.23;;
53931;SDS011;39844;52.496;13.482;2023-07-29T01:10:46;3.47;;;3.07;;
53931;SDS011;39844;52.496;13.482;2023-07-29T01:13:33;3.13;;;2.83;;
53931;SDS011;39844;52.496;13.482;2023-07-29T01:16:15;3.27;;;3.07;;
53931;SDS011;39844;52.496;13.482;2023-07-29T01:18:46;3.40;;;3.10;;
53931;SDS011;39844;52.496;13.482;2023-07-29T01:21:13;5.27;;;3.23;;
53931;SDS011;39844;52.496;13.482;2023-07-29T01:23:40;3.80;;;3.50;;
53931;SDS011;39844;52.496;13.482;2023-07-29T01:26:05;4.47;;;3.50;;
53931;SDS011;39844;52.496;13.482;2023-07-29T01:28:30;4.13;;;3.10;;
53931;SDS011;39844;52.496;13.482;2023-07-29T01:33:42;2.93;;;2.67;;
53931;SDS011;39844;52.496;13.482;2023-07-29T01:36:15;3.13;;;2.93;;
53931;SDS011;39844;52.496;13.482;2023-07-29T01:38:44;3.80;;;3.30;;
53931;SDS011;39844;52.496;13.482;2023-07-29T01:41:10;3.97;;;3.67;;
53931;SDS011;39844;52.496;13.482;2023-07-29T01:43:36;3.27;;;2.97;;
53931;SDS011;39844;52.496;13.482;2023-07-29T01:46:02;3.53;;;3.20;;
53931;SDS011;39844;52.496;13.482;2023-07-29T01:48:28;3.30;;;3.10;;
53931;SDS011;39844;52.496;13.482;2023-07-29T01:50:53;3.43;;;3.23;;
53931;SDS011;39844;52.496;13.482;2023-07-29T01:53:18;4.17;;;2.90;;
53931;SDS011;39844;52.496;13.482;2023-07-29T01:55:44;2.80;;;2.60;;
53931;SDS011;39844;52.496;13.482;2023-07-29T01:58:09;3.10;;;2.90;;
53931;SDS011;39844;52.496;13.482;2023-07-29T02:00:34;2.87;;;2.67;;
53931;SDS011;39844;52.496;13.482;2023-07-29T02:02:59;3.53;;;2.90;;
53931;SDS011;39844;52.496;13.482;2023-07-29T02:05:25;3.20;;;3.00;;
53931;SDS011;39844;52.496;13.482;2023-07-29T02:07:50;5.17;;;3.00;;
53931;SDS011;39844;52.496;13.482;2023-07-29T02:10:15;3.17;;;2.97;;
53931;SDS011;39844;52.496;13.482;2023-07-29T02:12:41;3.13;;;2.87;;
53931;SDS011;39844;52.496;13.482;2023-07-29T02:15:06;2.93;;;2.70;;
53931;SDS011;39844;52.496;13.482;2023-07-29T02:17:32;3.27;;;2.97;;
53931;SDS011;39844;52.496;13.482;2023-07-29T02:19:57;5.17;;;2.70;;
53931;SDS011;39844;52.496;13.482;2023-07-29T02:22:22;2.83;;;2.63;;
53931;SDS011;39844;52.496;13.482;2023-07-29T02:24:48;3.07;;;2.80;;
53931;SDS011;39844;52.496;13.482;2023-07-29T02:27:13;3.10;;;2.90;;
53931;SDS011;39844;52.496;13.482;2023-07-29T02:29:38;3.23;;;2.97;;
53931;SDS011;39844;52.496;13.482;2023-07-29T02:32:04;3.47;;;2.33;;
53931;SDS011;39844;52.496;13.482;2023-07-29T02:34:29;2.93;;;2.70;;
53931;SDS011;39844;52.496;13.482;2023-07-29T02:36:55;5.80;;;2.80;;
53931;SDS011;39844;52.496;13.482;2023-07-29T02:39:20;2.90;;;2.70;;
53931;SDS011;39844;52.496;13.482;2023-07-29T02:41:46;2.70;;;2.50;;
53931;SDS011;39844;52.496;13.482;2023-07-29T02:44:11;3.57;;;3.27;;
53931;SDS011;39844;52.496;13.482;2023-07-29T02:46:36;3.20;;;2.93;;
53931;SDS011;39844;52.496;13.482;2023-07-29T02:49:02;3.57;;;2.93;;
53931;SDS011;39844;52.496;13.482;2023-07-29T02:51:28;3.10;;;2.80;;
53931;SDS011;39844;52.496;13.482;2023-07-29T02:53:53;2.40;;;2.20;;
53931;SDS011;39844;52.496;13.482;2023-07-29T02:56:19;2.70;;;2.50;;
53931;SDS011;39844;52.496;13.482;2023-07-29T02:58:44;3.03;;;2.80;;
53931;SDS011;39844;52.496;13.482;2023-07-29T03:01:09;3.37;;;2.83;;
53931;SDS011;39844;52.496;13.482;2023-07-29T03:03:34;3.50;;;3.20;;
53931;SDS011;39844;52.496;13.482;2023-07-29T03:06:04;3.20;;;2.90;;
53931;SDS011;39844;52.496;13.482;2023-07-29T03:08:31;3.30;;;3.00;;
53931;SDS011;39844;52.496;13.482;2023-07-29T03:10:56;4.00;;;3.17;;
53931;SDS011;39844;52.496;13.482;2023-07-29T03:13:22;6.40;;;3.43;;
53931;SDS011;39844;52.496;13.482;2023-07-29T03:15:47;4.70;;;2.70;;
53931;SDS011;39844;52.496;13.482;2023-07-29T03:18:13;2.63;;;2.43;;
53931;SDS011;39844;52.496;13.482;2023-07-29T03:20:38;3.20;;;2.90;;
53931;SDS011;39844;52.496;13.482;2023-07-29T03:23:03;2.73;;;2.53;;
53931;SDS011;39844;52.496;13.482;2023-07-29T03:25:29;3.30;;;2.70;;
53931;SDS011;39844;52.496;13.482;2023-07-29T03:27:54;3.30;;;2.90;;
53931;SDS011;39844;52.496;13.482;2023-07-29T03:30:20;3.07;;;2.83;;
53931;SDS011;39844;52.496;13.482;2023-07-29T03:32:46;3.53;;;2.70;;
53931;SDS011;39844;52.496;13.482;2023-07-29T03:35:12;2.80;;;2.60;;
53931;SDS011;39844;52.496;13.482;2023-07-29T03:37:37;3.10;;;2.80;;
53931;SDS011;39844;52.496;13.482;2023-07-29T03:40:03;3.07;;;2.77;;
53931;SDS011;39844;52.496;13.482;2023-07-29T03:42:29;3.63;;;3.13;;
53931;SDS011;39844;52.496;13.482;2023-07-29T03:44:54;3.40;;;3.10;;
53931;SDS011;39844;52.496;13.482;2023-07-29T03:47:20;3.10;;;2.90;;
53931;SDS011;39844;52.496;13.482;2023-07-29T03:49:45;3.70;;;3.40;;
53931;SDS011;39844;52.496;13.482;2023-07-29T03:52:10;3.83;;;3.50;;
53931;SDS011;39844;52.496;13.482;2023-07-29T03:54:35;4.73;;;3.90;;
53931;SDS011;39844;52.496;13.482;2023-07-29T03:57:01;5.07;;;4.47;;
53931;SDS011;39844;52.496;13.482;2023-07-29T03:59:26;6.80;;;4.63;;
53931;SDS011;39844;52.496;13.482;2023-07-29T04:01:53;5.33;;;4.20;;
53931;SDS011;39844;52.496;13.482;2023-07-29T04:04:19;3.90;;;3.50;;
53931;SDS011;39844;52.496;13.482;2023-07-29T04:06:44;3.57;;;2.90;;
53931;SDS011;39844;52.496;13.482;2023-07-29T04:09:09;3.40;;;2.90;;
53931;SDS011;39844;52.496;13.482;2023-07-29T04:11:35;3.20;;;2.90;;
53931;SDS011;39844;52.496;13.482;2023-07-29T04:14:00;3.50;;;2.97;;
53931;SDS011;39844;52.496;13.482;2023-07-29T04:16:26;3.37;;;2.93;;
53931;SDS011;39844;52.496;13.482;2023-07-29T04:18:51;3.37;;;2.93;;
53931;SDS011;39844;52.496;13.482;2023-07-29T04:21:16;3.00;;;2.70;;
53931;SDS011;39844;52.496;13.482;2023-07-29T04:23:42;3.37;;;2.57;;
53931;SDS011;39844;52.496;13.482;2023-07-29T04:26:07;2.77;;;2.57;;
53931;SDS011;39844;52.496;13.482;2023-07-29T04:28:32;3.73;;;2.80;;
53931;SDS011;39844;52.496;13.482;2023-07-29T04:30:58;3.03;;;2.83;;
53931;SDS011;39844;52.496;13.482;2023-07-29T04:33:23;2.70;;;2.50;;
53931;SDS011;39844;52.496;13.482;2023-07-29T04:35:48;3.00;;;2.70;;
53931;SDS011;39844;52.496;13.482;2023-07-29T04:38:13;4.13;;;3.10;;
53931;SDS011;39844;52.496;13.482;2023-07-29T04:40:39;3.23;;;3.03;;
53931;SDS011;39844;52.496;13.482;2023-07-29T04:43:04;4.77;;;2.80;;
53931;SDS011;39844;52.496;13.482;2023-07-29T04:45:30;3.33;;;2.97;;
53931;SDS011;39844;52.496;13.482;2023-07-29T04:47:56;3.70;;;3.30;;
53931;SDS011;39844;52.496;13.482;2023-07-29T04:50:22;2.93;;;2.73;;
53931;SDS011;39844;52.496;13.482;2023-07-29T04:52:47;3.50;;;3.20;;
53931;SDS011;39844;52.496;13.482;2023-07-29T04:55:12;2.87;;;2.67;;
53931;SDS011;39844;52.496;13.482;2023-07-29T04:57:37;3.67;;;3.37;;
53931;SDS011;39844;52.496;13.482;2023-07-29T05:00:03;3.43;;;3.13;;
53931;SDS011;39844;52.496;13.482;2023-07-29T05:02:28;2.73;;;2.53;;
53931;SDS011;39844;52.496;13.482;2023-07-29T05:04:54;2.60;;;2.40;;
53931;SDS011;39844;52.496;13.482;2023-07-29T05:07:19;2.97;;;2.77;;
53931;SDS011;39844;52.496;13.482;2023-07-29T05:09:44;3.20;;;3.00;;
53931;SDS011;39844;52.496;13.482;2023-07-29T05:12:09;2.83;;;2.63;;
53931;SDS011;39844;52.496;13.482;2023-07-29T05:14:35;2.60;;;2.40;;
53931;SDS011;39844;52.496;13.482;2023-07-29T05:17:00;2.70;;;2.50;;
53931;SDS011;39844;52.496;13.482;2023-07-29T05:19:28;3.37;;;3.13;;
53931;SDS011;39844;52.496;13.482;2023-07-29T05:21:53;2.77;;;2.57;;
53931;SDS011;39844;52.496;13.482;2023-07-29T05:24:18;3.13;;;2.83;;
53931;SDS011;39844;52.496;13.482;2023-07-29T05:26:43;2.67;;;2.40;;
53931;SDS011;39844;52.496;13.482;2023-07-29T05:29:09;2.83;;;2.70;;
53931;SDS011;39844;52.496;13.482;2023-07-29T05:31:34;2.57;;;2.47;;
53931;SDS011;39844;52.496;13.482;2023-07-29T05:33:59;3.00;;;2.80;;
53931;SDS011;39844;52.496;13.482;2023-07-29T05:36:25;2.77;;;2.57;;
53931;SDS011;39844;52.496;13.482;2023-07-29T05:38:51;3.67;;;2.97;;
53931;SDS011;39844;52.496;13.482;2023-07-29T05:41:17;2.83;;;2.63;;
53931;SDS011;39844;52.496;13.482;2023-07-29T05:43:42;2.83;;;2.60;;
53931;SDS011;39844;52.496;13.482;2023-07-29T05:46:07;3.20;;;3.00;;
53931;SDS011;39844;52.496;13.482;2023-07-29T05:48:33;3.07;;;2.83;;
53931;SDS011;39844;52.496;13.482;2023-07-29T05:50:58;2.90;;;2.70;;
53931;SDS011;39844;52.496;13.482;2023-07-29T05:53:23;3.23;;;2.57;;
53931;SDS011;39844;52.496;13.482;2023-07-29T05:55:48;2.77;;;2.57;;
53931;SDS011;39844;52.496;13.482;2023-07-29T05:58:14;2.67;;;2.27;;
53931;SDS011;39844;52.496;13.482;2023-07-29T06:00:39;5.20;;;2.50;;
53931;SDS011;39844;52.496;13.482;2023-07-29T06:03:04;3.10;;;2.80;;
53931;SDS011;39844;52.496;13.482;2023-07-29T06:05:30;3.27;;;2.97;;
53931;SDS011;39844;52.496;13.482;2023-07-29T06:07:55;2.67;;;2.43;;
53931;SDS011;39844;52.496;13.482;2023-07-29T06:10:20;3.80;;;2.20;;
53931;SDS011;39844;52.496;13.482;2023-07-29T06:12:46;2.47;;;2.27;;
53931;SDS011;39844;52.496;13.482;2023-07-29T06:15:11;2.40;;;2.27;;
53931;SDS011;39844;52.496;13.482;2023-07-29T06:17:36;2.70;;;2.50;;
53931;SDS011;39844;52.496;13.482;2023-07-29T06:20:02;4.13;;;2.50;;
53931;SDS011;39844;52.496;13.482;2023-07-29T06:22:27;2.47;;;2.27;;
53931;SDS011;39844;52.496;13.482;2023-07-29T06:24:53;2.63;;;2.20;;
53931;SDS011;39844;52.496;13.482;2023-07-29T06:27:18;3.13;;;2.60;;
53931;SDS011;39844;52.496;13.482;2023-07-29T06:29:43;2.30;;;2.20;;
53931;SDS011;39844;52.496;13.482;2023-07-29T06:32:08;3.90;;;2.30;;
53931;SDS011;39844;52.496;13.482;2023-07-29T06:34:34;2.53;;;2.33;;
53931;SDS011;39844;52.496;13.482;2023-07-29T06:36:59;2.37;;;2.17;;
53931;SDS011;39844;52.496;13.482;2023-07-29T06:39:24;2.33;;;2.13;;
53931;SDS011;39844;52.496;13.482;2023-07-29T06:41:50;2.00;;;1.90;;
53931;SDS011;39844;52.496;13.482;2023-07-29T06:44:15;2.05;;;1.95;;
53931;SDS011;39844;52.496;13.482;2023-07-29T06:46:41;2.10;;;2.00;;
53931;SDS011;39844;52.496;13.482;2023-07-29T06:49:06;2.17;;;2.07;;
53931;SDS011;39844;52.496;13.482;2023-07-29T06:51:31;2.20;;;2.10;;
53931;SDS011;39844;52.496;13.482;2023-07-29T06:53:56;2.70;;;2.13;;
53931;SDS011;39844;52.496;13.482;2023-07-29T06:56:22;2.17;;;2.08;;
53931;SDS011;39844;52.496;13.482;2023-07-29T06:58:47;2.30;;;2.10;;
53931;SDS011;39844;52.496;13.482;2023-07-29T07:01:12;2.37;;;2.17;;
53931;SDS011;39844;52.496;13.482;2023-07-29T07:03:38;1.97;;;1.87;;
53931;SDS011;39844;52.496;13.482;2023-07-29T07:06:03;2.38;;;2.20;;
53931;SDS011;39844;52.496;13.482;2023-07-29T07:08:28;2.05;;;1.95;;
53931;SDS011;39844;52.496;13.482;2023-07-29T07:10:53;2.30;;;1.88;;
53931;SDS011;39844;52.496;13.482;2023-07-29T07:13:19;2.80;;;2.60;;
53931;SDS011;39844;52.496;13.482;2023-07-29T07:15:44;2.83;;;2.30;;
53931;SDS011;39844;52.496;13.482;2023-07-29T07:18:09;4.10;;;2.22;;
53931;SDS011;39844;52.496;13.482;2023-07-29T07:20:35;2.33;;;2.13;;
53931;SDS011;39844;52.496;13.482;2023-07-29T07:23:00;2.67;;;2.53;;
53931;SDS011;39844;52.496;13.482;2023-07-29T07:25:25;2.47;;;2.28;;
53931;SDS011;39844;52.496;13.482;2023-07-29T07:27:50;2.67;;;2.47;;
53931;SDS011;39844;52.496;13.482;2023-07-29T07:30:16;2.33;;;2.22;;
53931;SDS011;39844;52.496;13.482;2023-07-29T07:32:41;2.80;;;2.60;;
53931;SDS011;39844;52.496;13.482;2023-07-29T07:35:06;2.70;;;2.50;;
53931;SDS011;39844;52.496;13.482;2023-07-29T07:37:32;2.40;;;2.30;;
53931;SDS011;39844;52.496;13.482;2023-07-29T07:39:57;2.55;;;2.35;;
53931;SDS011;39844;52.496;13.482;2023-07-29T07:42:22;2.38;;;2.22;;
53931;SDS011;39844;52.496;13.482;2023-07-29T07:44:48;2.58;;;2.38;;
53931;SDS011;39844;52.496;13.482;2023-07-29T07:47:13;2.53;;;2.33;;
53931;SDS011;39844;52.496;13.482;2023-07-29T07:49:38;2.80;;;2.60;;
53931;SDS011;39844;52.496;13.482;2023-07-29T07:52:04;2.72;;;2.15;;
53931;SDS011;39844;52.496;13.482;2023-07-29T07:54:29;2.50;;;2.33;;
53931;SDS011;39844;52.496;13.482;2023-07-29T07:56:54;2.67;;;2.47;;
53931;SDS011;39844;52.496;13.482;2023-07-29T07:59:20;2.80;;;2.60;;
53931;SDS011;39844;52.496;13.482;2023-07-29T08:01:45;3.40;;;2.50;;
53931;SDS011;39844;52.496;13.482;2023-07-29T08:04:10;2.90;;;2.50;;
53931;SDS011;39844;52.496;13.482;2023-07-29T08:06:36;3.20;;;2.67;;
53931;SDS011;39844;52.496;13.482;2023-07-29T08:09:02;2.95;;;2.38;;
53931;SDS011;39844;52.496;13.482;2023-07-29T08:11:27;2.72;;;2.53;;
53931;SDS011;39844;52.496;13.482;2023-07-29T08:13:52;3.15;;;2.75;;
53931;SDS011;39844;52.496;13.482;2023-07-29T08:16:18;2.10;;;2.00;;
53931;SDS011;39844;52.496;13.482;2023-07-29T08:18:43;3.95;;;2.30;;
53931;SDS011;39844;52.496;13.482;2023-07-29T08:21:08;5.13;;;2.25;;
53931;SDS011;39844;52.496;13.482;2023-07-29T08:23:34;3.42;;;2.10;;
53931;SDS011;39844;52.496;13.482;2023-07-29T08:26:01;2.63;;;2.42;;
53931;SDS011;39844;52.496;13.482;2023-07-29T08:28:29;2.38;;;2.28;;
53931;SDS011;39844;52.496;13.482;2023-07-29T08:30:57;2.30;;;2.20;;
53931;SDS011;39844;52.496;13.482;2023-07-29T08:33:22;2.17;;;2.08;;
53931;SDS011;39844;52.496;13.482;2023-07-29T08:35:48;2.30;;;2.20;;
53931;SDS011;39844;52.496;13.482;2023-07-29T08:38:13;2.50;;;2.40;;
53931;SDS011;39844;52.496;13.482;2023-07-29T08:40:42;2.22;;;2.13;;
53931;SDS011;39844;52.496;13.482;2023-07-29T08:43:13;2.38;;;2.17;;
53931;SDS011;39844;52.496;13.482;2023-07-29T08:45:41;2.28;;;2.17;;
53931;SDS011;39844;52.496;13.482;2023-07-29T08:48:09;2.20;;;2.10;;
53931;SDS011;39844;52.496;13.482;2023-07-29T08:50:36;3.20;;;2.20;;
53931;SDS011;39844;52.496;13.482;2023-07-29T08:53:05;2.40;;;2.30;;
53931;SDS011;39844;52.496;13.482;2023-07-29T08:55:30;2.47;;;2.38;;
53931;SDS011;39844;52.496;13.482;2023-07-29T08:57:56;2.10;;;2.00;;
53931;SDS011;39844;52.496;13.482;2023-07-29T09:00:23;2.38;;;2.20;;
53931;SDS011;39844;52.496;13.482;2023-07-29T09:02:50;1.90;;;1.80;;
53931;SDS011;39844;52.496;13.482;2023-07-29T09:05:15;2.10;;;2.00;;
53931;SDS011;39844;52.496;13.482;2023-07-29T09:07:41;1.80;;;1.70;;
53931;SDS011;39844;52.496;13.482;2023-07-29T09:10:10;2.15;;;2.05;;
53931;SDS011;39844;52.496;13.482;2023-07-29T09:12:35;3.60;;;2.08;;
53931;SDS011;39844;52.496;13.482;2023-07-29T09:15:00;3.83;;;1.90;;
53931;SDS011;39844;52.496;13.482;2023-07-29T09:17:25;1.58;;;1.58;;
53931;SDS011;39844;52.496;13.482;2023-07-29T09:19:51;2.10;;;2.00;;
53931;SDS011;39844;52.496;13.482;2023-07-29T09:22:19;1.95;;;1.85;;
53931;SDS011;39844;52.496;13.482;2023-07-29T09:24:46;2.10;;;2.00;;
53931;SDS011;39844;52.496;13.482;2023-07-29T09:27:33;2.08;;;1.98;;
53931;SDS011;39844;52.496;13.482;2023-07-29T09:29:57;1.75;;;1.70;;
53931;SDS011;39844;52.496;13.482;2023-07-29T09:32:23;1.98;;;1.88;;
53931;SDS011;39844;52.496;13.482;2023-07-29T09:34:50;1.70;;;1.60;;
53931;SDS011;39844;52.496;13.482;2023-07-29T09:37:16;1.60;;;1.60;;
53931;SDS011;39844;52.496;13.482;2023-07-29T09:39:46;2.00;;;1.90;;
53931;SDS011;39844;52.496;13.482;2023-07-29T09:42:17;1.70;;;1.60;;
53931;SDS011;39844;52.496;13.482;2023-07-29T09:44:43;1.83;;;1.73;;
53931;SDS011;39844;52.496;13.482;2023-07-29T09:47:08;2.00;;;1.90;;
53931;SDS011;39844;52.496;13.482;2023-07-29T09:49:36;1.70;;;1.70;;
53931;SDS011;39844;52.496;13.482;2023-07-29T09:52:02;1.95;;;1.85;;
53931;SDS011;39844;52.496;13.482;2023-07-29T09:54:27;1.90;;;1.80;;
53931;SDS011;39844;52.496;13.482;2023-07-29T09:56:52;1.80;;;1.70;;
53931;SDS011;39844;52.496;13.482;2023-07-29T09:59:19;1.77;;;1.67;;
53931;SDS011;39844;52.496;13.482;2023-07-29T10:01:44;1.83;;;1.73;;
53931;SDS011;39844;52.496;13.482;2023-07-29T10:04:10;1.70;;;1.60;;
53931;SDS011;39844;52.496;13.482;2023-07-29T10:06:35;1.83;;;1.70;;
53931;SDS011;39844;52.496;13.482;2023-07-29T10:09:02;1.92;;;1.83;;
53931;SDS011;39844;52.496;13.482;2023-07-29T10:11:28;1.75;;;1.67;;
53931;SDS011;39844;52.496;13.482;2023-07-29T10:13:55;1.40;;;1.40;;
53931;SDS011;39844;52.496;13.482;2023-07-29T10:16:20;1.75;;;1.67;;
53931;SDS011;39844;52.496;13.482;2023-07-29T10:18:46;1.60;;;1.50;;
53931;SDS011;39844;52.496;13.482;2023-07-29T10:21:12;1.92;;;1.80;;
53931;SDS011;39844;52.496;13.482;2023-07-29T10:23:41;1.63;;;1.63;;
53931;SDS011;39844;52.496;13.482;2023-07-29T10:26:09;1.50;;;1.50;;
53931;SDS011;39844;52.496;13.482;2023-07-29T10:28:37;1.77;;;1.67;;
53931;SDS011;39844;52.496;13.482;2023-07-29T10:31:05;3.15;;;1.75;;
53931;SDS011;39844;52.496;13.482;2023-07-29T10:33:31;1.90;;;1.80;;
53931;SDS011;39844;52.496;13.482;2023-07-29T10:35:58;1.70;;;1.60;;
53931;SDS011;39844;52.496;13.482;2023-07-29T10:38:24;3.05;;;1.48;;
53931;SDS011;39844;52.496;13.482;2023-07-29T10:40:51;1.33;;;1.33;;
53931;SDS011;39844;52.496;13.482;2023-07-29T10:43:24;1.45;;;1.38;;
53931;SDS011;39844;52.496;13.482;2023-07-29T10:45:53;1.20;;;1.20;;
53931;SDS011;39844;52.496;13.482;2023-07-29T10:53:55;1.33;;;1.33;;
53931;SDS011;39844;52.496;13.482;2023-07-29T10:56:35;1.65;;;1.55;;
53931;SDS011;39844;52.496;13.482;2023-07-29T11:01:39;1.30;;;1.30;;
53931;SDS011;39844;52.496;13.482;2023-07-29T11:10:30;1.20;;;1.20;;
53931;SDS011;39844;52.496;13.482;2023-07-29T11:15:03;1.25;;;1.25;;
53931;SDS011;39844;52.496;13.482;2023-07-29T11:17:35;1.20;;;1.20;;
53931;SDS011;39844;52.496;13.482;2023-07-29T11:20:03;1.20;;;1.20;;
53931;SDS011;39844;52.496;13.482;2023-07-29T11:22:29;1.20;;;1.20;;
53931;SDS011;39844;52.496;13.482;2023-07-29T11:24:55;1.00;;;1.00;;
53931;SDS011;39844;52.496;13.482;2023-07-29T11:27:21;2.28;;;1.13;;
53931;SDS011;39844;52.496;13.482;2023-07-29T11:29:46;3.17;;;1.55;;
53931;SDS011;39844;52.496;13.482;2023-07-29T11:32:12;3.42;;;1.45;;
53931;SDS011;39844;52.496;13.482;2023-07-29T11:34:38;1.17;;;0.95;;
53931;SDS011;39844;52.496;13.482;2023-07-29T11:37:03;0.95;;;0.95;;
53931;SDS011;39844;52.496;13.482;2023-07-29T11:39:29;0.73;;;0.50;;
53931;SDS011;39844;52.496;13.482;2023-07-29T11:41:54;1.65;;;0.65;;
53931;SDS011;39844;52.496;13.482;2023-07-29T11:44:19;2.80;;;0.65;;
53931;SDS011;39844;52.496;13.482;2023-07-29T11:46:45;0.80;;;0.60;;
53931;SDS011;39844;52.496;13.482;2023-07-29T11:49:10;2.00;;;0.75;;
53931;SDS011;39844;52.496;13.482;2023-07-29T11:51:38;0.77;;;0.50;;
53931;SDS011;39844;52.496;13.482;2023-07-29T11:54:06;0.60;;;0.60;;
53931;SDS011;39844;52.496;13.482;2023-07-29T11:56:31;2.13;;;0.60;;
53931;SDS011;39844;52.496;13.482;2023-07-29T11:58:57;0.50;;;0.50;;
53931;SDS011;39844;52.496;13.482;2023-07-29T12:01:22;0.50;;;0.50;;
53931;SDS011;39844;52.496;13.482;2023-07-29T12:03:48;0.40;;;0.40;;
53931;SDS011;39844;52.496;13.482;2023-07-29T12:06:15;0.40;;;0.40;;
53931;SDS011;39844;52.496;13.482;2023-07-29T12:08:41;0.40;;;0.40;;
53931;SDS011;39844;52.496;13.482;2023-07-29T12:11:07;0.50;;;0.50;;
53931;SDS011;39844;52.496;13.482;2023-07-29T12:13:33;0.40;;;0.40;;
53931;SDS011;39844;52.496;13.482;2023-07-29T12:16:01;0.50;;;0.50;;
53931;SDS011;39844;52.496;13.482;2023-07-29T12:18:32;0.65;;;0.65;;
53931;SDS011;39844;52.496;13.482;2023-07-29T12:20:58;0.50;;;0.50;;
53931;SDS011;39844;52.496;13.482;2023-07-29T12:23:24;0.60;;;0.60;;
53931;SDS011;39844;52.496;13.482;2023-07-29T12:25:50;1.65;;;0.68;;
53931;SDS011;39844;52.496;13.482;2023-07-29T12:28:21;0.80;;;0.80;;
53931;SDS011;39844;52.496;13.482;2023-07-29T12:30:47;0.50;;;0.50;;
53931;SDS011;39844;52.496;13.482;2023-07-29T12:33:28;0.82;;;0.82;;
53931;SDS011;39844;52.496;13.482;2023-07-29T12:35:57;0.70;;;0.70;;
53931;SDS011;39844;52.496;13.482;2023-07-29T12:38:22;0.80;;;0.80;;
53931;SDS011;39844;52.496;13.482;2023-07-29T12:40:47;1.15;;;1.00;;
53931;SDS011;39844;52.496;13.482;2023-07-29T12:43:13;1.10;;;1.00;;
53931;SDS011;39844;52.496;13.482;2023-07-29T12:45:38;1.10;;;1.10;;
53931;SDS011;39844;52.496;13.482;2023-07-29T12:48:03;1.23;;;1.20;;
53931;SDS011;39844;52.496;13.482;2023-07-29T12:50:29;0.88;;;0.88;;
53931;SDS011;39844;52.496;13.482;2023-07-29T12:52:54;1.52;;;1.42;;
53931;SDS011;39844;52.496;13.482;2023-07-29T12:55:20;1.42;;;1.23;;
53931;SDS011;39844;52.496;13.482;2023-07-29T12:57:45;1.40;;;1.30;;
53931;SDS011;39844;52.496;13.482;2023-07-29T13:00:11;1.38;;;1.23;;
53931;SDS011;39844;52.496;13.482;2023-07-29T13:02:36;1.17;;;1.17;;
53931;SDS011;39844;52.496;13.482;2023-07-29T13:05:02;1.60;;;1.50;;
53931;SDS011;39844;52.496;13.482;2023-07-29T13:07:27;4.38;;;1.60;;
53931;SDS011;39844;52.496;13.482;2023-07-29T13:09:52;1.65;;;1.55;;
53931;SDS011;39844;52.496;13.482;2023-07-29T13:12:18;2.20;;;1.40;;
53931;SDS011;39844;52.496;13.482;2023-07-29T13:14:43;1.85;;;1.73;;
53931;SDS011;39844;52.496;13.482;2023-07-29T13:17:08;1.60;;;1.50;;
53931;SDS011;39844;52.496;13.482;2023-07-29T13:19:33;2.28;;;1.42;;
53931;SDS011;39844;52.496;13.482;2023-07-29T13:21:59;1.25;;;1.25;;
53931;SDS011;39844;52.496;13.482;2023-07-29T13:24:24;1.60;;;1.50;;
53931;SDS011;39844;52.496;13.482;2023-07-29T13:26:49;1.35;;;1.33;;
53931;SDS011;39844;52.496;13.482;2023-07-29T13:29:15;1.85;;;1.60;;
53931;SDS011;39844;52.496;13.482;2023-07-29T13:31:40;1.27;;;1.27;;
53931;SDS011;39844;52.496;13.482;2023-07-29T13:34:05;1.67;;;1.58;;
53931;SDS011;39844;52.496;13.482;2023-07-29T13:36:30;1.55;;;1.45;;
53931;SDS011;39844;52.496;13.482;2023-07-29T13:38:56;1.70;;;1.60;;
53931;SDS011;39844;52.496;13.482;2023-07-29T13:41:21;1.85;;;1.75;;
53931;SDS011;39844;52.496;13.482;2023-07-29T13:43:46;1.35;;;1.35;;
53931;SDS011;39844;52.496;13.482;2023-07-29T13:46:11;1.70;;;1.60;;
53931;SDS011;39844;52.496;13.482;2023-07-29T13:48:37;1.55;;;1.45;;
53931;SDS011;39844;52.496;13.482;2023-07-29T13:51:02;1.30;;;1.30;;
53931;SDS011;39844;52.496;13.482;2023-07-29T13:53:27;1.33;;;1.33;;
53931;SDS011;39844;52.496;13.482;2023-07-29T13:55:53;1.10;;;1.10;;
53931;SDS011;39844;52.496;13.482;2023-07-29T13:58:18;1.40;;;1.30;;
53931;SDS011;39844;52.496;13.482;2023-07-29T14:00:43;1.23;;;1.17;;
53931;SDS011;39844;52.496;13.482;2023-07-29T14:03:08;1.20;;;1.20;;
53931;SDS011;39844;52.496;13.482;2023-07-29T14:05:34;1.27;;;1.17;;
53931;SDS011;39844;52.496;13.482;2023-07-29T14:07:59;1.10;;;1.10;;
53931;SDS011;39844;52.496;13.482;2023-07-29T14:10:24;1.65;;;1.50;;
53931;SDS011;39844;52.496;13.482;2023-07-29T14:12:50;1.63;;;1.52;;
53931;SDS011;39844;52.496;13.482;2023-07-29T14:15:15;1.30;;;1.10;;
53931;SDS011;39844;52.496;13.482;2023-07-29T14:17:40;1.40;;;1.10;;
53931;SDS011;39844;52.496;13.482;2023-07-29T14:20:06;1.40;;;1.30;;
53931;SDS011;39844;52.496;13.482;2023-07-29T14:22:32;1.20;;;1.10;;
53931;SDS011;39844;52.496;13.482;2023-07-29T14:24:57;1.00;;;1.00;;
53931;SDS011;39844;52.496;13.482;2023-07-29T14:27:22;1.05;;;1.05;;
53931;SDS011;39844;52.496;13.482;2023-07-29T14:29:47;1.23;;;1.20;;
53931;SDS011;39844;52.496;13.482;2023-07-29T14:32:13;1.10;;;1.10;;
53931;SDS011;39844;52.496;13.482;2023-07-29T14:34:38;1.00;;;1.00;;
53931;SDS011;39844;52.496;13.482;2023-07-29T14:37:03;1.00;;;1.00;;
53931;SDS011;39844;52.496;13.482;2023-07-29T14:39:29;0.95;;;0.95;;
53931;SDS011;39844;52.496;13.482;2023-07-29T14:41:55;1.02;;;1.02;;
53931;SDS011;39844;52.496;13.482;2023-07-29T14:44:20;1.33;;;1.23;;
53931;SDS011;39844;52.496;13.482;2023-07-29T14:46:45;0.95;;;0.90;;